sensor_id;sensor_type;location;lat;lon;timestamp;temperature;humidity
56137;DHT22;42008;52.934;5.884;2022-08-04T00:02:11;20.10;1.00
56137;DHT22;42008;52.934;5.884;2022-08-04T00:05:04;20.30;1.00
56137;DHT22;42008;52.934;5.884;2022-08-04T00:07:39;19.60;1.00
56137;DHT22;42008;52.934;5.884;2022-08-04T00:10:06;20.00;1.00
56137;DHT22;42008;52.934;5.884;2022-08-04T00:12:35;19.80;1.00
56137;DHT22;42008;52.934;5.884;2022-08-04T00:15:03;20.50;1.00
56137;DHT22;42008;52.934;5.884;2022-08-04T00:17:39;19.80;1.00
56137;DHT22;42008;52.934;5.884;2022-08-04T00:20:05;19.70;1.00
56137;DHT22;42008;52.934;5.884;2022-08-04T00:22:34;20.10;1.00
56137;DHT22;42008;52.934;5.884;2022-08-04T00:25:04;19.70;1.00
56137;DHT22;42008;52.934;5.884;2022-08-04T00:27:31;19.70;1.00
56137;DHT22;42008;52.934;5.884;2022-08-04T00:29:58;19.90;1.00
56137;DHT22;42008;52.934;5.884;2022-08-04T00:32:26;19.80;1.00
56137;DHT22;42008;52.934;5.884;2022-08-04T00:34:56;20.60;1.00
56137;DHT22;42008;52.934;5.884;2022-08-04T00:37:23;20.00;1.00
56137;DHT22;42008;52.934;5.884;2022-08-04T00:39:50;20.70;1.00
56137;DHT22;42008;52.934;5.884;2022-08-04T00:42:29;19.50;1.00
56137;DHT22;42008;52.934;5.884;2022-08-04T00:45:23;19.80;1.00
56137;DHT22;42008;52.934;5.884;2022-08-04T00:51:02;19.70;1.00
56137;DHT22;42008;52.934;5.884;2022-08-04T00:54:00;20.70;1.00
56137;DHT22;42008;52.934;5.884;2022-08-04T00:59:43;19.80;1.00
56137;DHT22;42008;52.934;5.884;2022-08-04T01:17:19;19.70;1.00
56137;DHT22;42008;52.934;5.884;2022-08-04T01:20:05;19.80;1.00
56137;DHT22;42008;52.934;5.884;2022-08-04T01:31:30;19.50;1.00
56137;DHT22;42008;52.934;5.884;2022-08-04T01:33:59;19.50;1.00
56137;DHT22;42008;52.934;5.884;2022-08-04T01:36:29;18.70;1.00
56137;DHT22;42008;52.934;5.884;2022-08-04T01:38:57;20.70;1.00
56137;DHT22;42008;52.934;5.884;2022-08-04T01:41:24;19.70;1.00
56137;DHT22;42008;52.934;5.884;2022-08-04T01:43:53;19.00;1.00
56137;DHT22;42008;52.934;5.884;2022-08-04T01:46:20;19.00;1.00
56137;DHT22;42008;52.934;5.884;2022-08-04T01:48:52;19.80;1.00
56137;DHT22;42008;52.934;5.884;2022-08-04T01:51:19;20.80;1.00
56137;DHT22;42008;52.934;5.884;2022-08-04T01:53:46;18.40;1.00
56137;DHT22;42008;52.934;5.884;2022-08-04T01:56:12;19.20;1.00
56137;DHT22;42008;52.934;5.884;2022-08-04T01:58:39;18.80;1.00
56137;DHT22;42008;52.934;5.884;2022-08-04T02:01:09;19.70;1.00
56137;DHT22;42008;52.934;5.884;2022-08-04T02:03:37;18.80;1.00
56137;DHT22;42008;52.934;5.884;2022-08-04T02:06:16;18.60;1.00
56137;DHT22;42008;52.934;5.884;2022-08-04T02:11:33;19.60;1.00
56137;DHT22;42008;52.934;5.884;2022-08-04T02:17:02;21.30;1.00
56137;DHT22;42008;52.934;5.884;2022-08-04T02:19:35;20.40;1.00
56137;DHT22;42008;52.934;5.884;2022-08-04T02:22:16;18.70;1.00
56137;DHT22;42008;52.934;5.884;2022-08-04T02:24:45;19.40;1.00
56137;DHT22;42008;52.934;5.884;2022-08-04T02:27:13;19.70;1.00
56137;DHT22;42008;52.934;5.884;2022-08-04T02:29:50;19.50;1.00
56137;DHT22;42008;52.934;5.884;2022-08-04T02:32:26;18.40;1.00
56137;DHT22;42008;52.934;5.884;2022-08-04T02:35:02;19.90;1.00
56137;DHT22;42008;52.934;5.884;2022-08-04T02:37:32;20.80;1.00
56137;DHT22;42008;52.934;5.884;2022-08-04T02:40:03;19.20;1.00
56137;DHT22;42008;52.934;5.884;2022-08-04T02:42:30;19.20;1.00
56137;DHT22;42008;52.934;5.884;2022-08-04T02:44:57;19.90;1.00
56137;DHT22;42008;52.934;5.884;2022-08-04T02:47:26;19.40;1.00
56137;DHT22;42008;52.934;5.884;2022-08-04T02:49:52;19.60;1.00
56137;DHT22;42008;52.934;5.884;2022-08-04T02:52:19;19.70;1.00
56137;DHT22;42008;52.934;5.884;2022-08-04T02:54:47;18.90;1.00
56137;DHT22;42008;52.934;5.884;2022-08-04T02:57:14;20.00;1.00
56137;DHT22;42008;52.934;5.884;2022-08-04T03:00:05;18.50;1.00
56137;DHT22;42008;52.934;5.884;2022-08-04T03:05:20;19.30;1.00
56137;DHT22;42008;52.934;5.884;2022-08-04T03:16:43;18.00;1.00
56137;DHT22;42008;52.934;5.884;2022-08-04T03:33:59;19.40;1.00
56137;DHT22;42008;52.934;5.884;2022-08-04T03:37:02;19.10;1.00
56137;DHT22;42008;52.934;5.884;2022-08-04T03:40:13;17.80;1.00
56137;DHT22;42008;52.934;5.884;2022-08-04T03:55:10;17.90;1.10
56137;DHT22;42008;52.934;5.884;2022-08-04T04:03:22;19.90;1.10
56137;DHT22;42008;52.934;5.884;2022-08-04T04:11:24;19.40;1.00
56137;DHT22;42008;52.934;5.884;2022-08-04T04:19:58;19.50;1.00
56137;DHT22;42008;52.934;5.884;2022-08-04T04:22:53;19.50;1.00
56137;DHT22;42008;52.934;5.884;2022-08-04T04:25:38;19.90;1.00
56137;DHT22;42008;52.934;5.884;2022-08-04T04:34:07;19.50;1.00
56137;DHT22;42008;52.934;5.884;2022-08-04T04:36:48;19.50;1.00
56137;DHT22;42008;52.934;5.884;2022-08-04T04:47:32;19.70;1.00
56137;DHT22;42008;52.934;5.884;2022-08-04T04:50:13;19.60;1.00
56137;DHT22;42008;52.934;5.884;2022-08-04T04:53:01;19.60;1.00
56137;DHT22;42008;52.934;5.884;2022-08-04T04:55:34;19.60;1.00
56137;DHT22;42008;52.934;5.884;2022-08-04T04:58:04;20.00;1.00
56137;DHT22;42008;52.934;5.884;2022-08-04T05:03:18;20.20;1.00
56137;DHT22;42008;52.934;5.884;2022-08-04T05:05:58;19.90;1.00
56137;DHT22;42008;52.934;5.884;2022-08-04T05:13:46;20.10;1.00
56137;DHT22;42008;52.934;5.884;2022-08-04T05:16:31;20.20;1.00
56137;DHT22;42008;52.934;5.884;2022-08-04T05:19:38;20.10;1.00
56137;DHT22;42008;52.934;5.884;2022-08-04T05:22:44;20.40;1.00
56137;DHT22;42008;52.934;5.884;2022-08-04T05:25:33;20.20;1.00
56137;DHT22;42008;52.934;5.884;2022-08-04T05:28:09;20.50;1.00
56137;DHT22;42008;52.934;5.884;2022-08-04T05:30:39;22.20;1.00
56137;DHT22;42008;52.934;5.884;2022-08-04T05:33:24;20.60;1.00
56137;DHT22;42008;52.934;5.884;2022-08-04T05:35:59;20.30;9.90
56137;DHT22;42008;52.934;5.884;2022-08-04T05:38:33;21.40;8.10
56137;DHT22;42008;52.934;5.884;2022-08-04T05:40:59;20.60;1.00
56137;DHT22;42008;52.934;5.884;2022-08-04T05:43:26;20.60;1.00
56137;DHT22;42008;52.934;5.884;2022-08-04T05:45:53;20.70;1.00
56137;DHT22;42008;52.934;5.884;2022-08-04T05:48:19;21.40;1.00
56137;DHT22;42008;52.934;5.884;2022-08-04T05:50:45;22.30;1.00
56137;DHT22;42008;52.934;5.884;2022-08-04T05:53:13;22.40;1.00
56137;DHT22;42008;52.934;5.884;2022-08-04T05:55:40;22.90;1.00
56137;DHT22;42008;52.934;5.884;2022-08-04T05:58:05;20.80;1.00
56137;DHT22;42008;52.934;5.884;2022-08-04T06:00:32;21.80;1.00
56137;DHT22;42008;52.934;5.884;2022-08-04T06:03:00;22.70;1.00
56137;DHT22;42008;52.934;5.884;2022-08-04T06:05:27;22.60;1.00
56137;DHT22;42008;52.934;5.884;2022-08-04T06:07:53;21.40;1.00
56137;DHT22;42008;52.934;5.884;2022-08-04T06:10:18;22.80;1.00
56137;DHT22;42008;52.934;5.884;2022-08-04T06:13:00;22.90;1.00
56137;DHT22;42008;52.934;5.884;2022-08-04T06:15:27;22.50;1.00
56137;DHT22;42008;52.934;5.884;2022-08-04T06:18:00;23.50;1.00
56137;DHT22;42008;52.934;5.884;2022-08-04T06:20:31;23.50;1.00
56137;DHT22;42008;52.934;5.884;2022-08-04T06:23:02;23.20;1.00
56137;DHT22;42008;52.934;5.884;2022-08-04T06:25:31;23.40;1.00
56137;DHT22;42008;52.934;5.884;2022-08-04T06:27:57;23.10;1.00
56137;DHT22;42008;52.934;5.884;2022-08-04T06:30:26;23.50;1.00
56137;DHT22;42008;52.934;5.884;2022-08-04T06:32:53;23.20;1.00
56137;DHT22;42008;52.934;5.884;2022-08-04T06:35:25;23.50;1.00
56137;DHT22;42008;52.934;5.884;2022-08-04T06:37:52;22.70;1.00
56137;DHT22;42008;52.934;5.884;2022-08-04T06:40:21;22.60;1.00
56137;DHT22;42008;52.934;5.884;2022-08-04T06:42:48;23.40;1.00
56137;DHT22;42008;52.934;5.884;2022-08-04T06:45:14;24.10;1.00
56137;DHT22;42008;52.934;5.884;2022-08-04T06:47:41;24.70;1.00
56137;DHT22;42008;52.934;5.884;2022-08-04T06:50:09;23.00;1.00
56137;DHT22;42008;52.934;5.884;2022-08-04T06:52:35;23.80;1.00
56137;DHT22;42008;52.934;5.884;2022-08-04T06:55:01;24.20;1.00
56137;DHT22;42008;52.934;5.884;2022-08-04T06:57:29;23.60;1.00
56137;DHT22;42008;52.934;5.884;2022-08-04T06:59:58;25.50;1.00
56137;DHT22;42008;52.934;5.884;2022-08-04T07:02:27;24.40;1.00
56137;DHT22;42008;52.934;5.884;2022-08-04T07:04:55;23.90;1.00
56137;DHT22;42008;52.934;5.884;2022-08-04T07:07:24;23.90;1.00
56137;DHT22;42008;52.934;5.884;2022-08-04T07:09:50;23.90;1.00
56137;DHT22;42008;52.934;5.884;2022-08-04T07:12:17;24.20;1.00
56137;DHT22;42008;52.934;5.884;2022-08-04T07:14:48;23.90;1.00
56137;DHT22;42008;52.934;5.884;2022-08-04T07:17:14;22.40;1.00
56137;DHT22;42008;52.934;5.884;2022-08-04T07:19:41;24.00;1.00
56137;DHT22;42008;52.934;5.884;2022-08-04T07:22:09;24.30;1.00
56137;DHT22;42008;52.934;5.884;2022-08-04T07:24:36;23.90;1.00
56137;DHT22;42008;52.934;5.884;2022-08-04T07:27:04;23.10;1.00
56137;DHT22;42008;52.934;5.884;2022-08-04T07:29:30;23.40;1.00
56137;DHT22;42008;52.934;5.884;2022-08-04T07:31:57;23.40;1.00
56137;DHT22;42008;52.934;5.884;2022-08-04T07:34:24;25.40;1.00
56137;DHT22;42008;52.934;5.884;2022-08-04T07:36:52;23.50;1.00
56137;DHT22;42008;52.934;5.884;2022-08-04T07:39:19;23.40;1.00
56137;DHT22;42008;52.934;5.884;2022-08-04T07:41:45;24.40;1.00
56137;DHT22;42008;52.934;5.884;2022-08-04T07:44:13;23.60;1.00
56137;DHT22;42008;52.934;5.884;2022-08-04T07:46:39;24.70;1.00
56137;DHT22;42008;52.934;5.884;2022-08-04T07:49:05;23.60;1.00
56137;DHT22;42008;52.934;5.884;2022-08-04T07:51:32;24.50;1.00
56137;DHT22;42008;52.934;5.884;2022-08-04T07:54:00;23.50;1.00
56137;DHT22;42008;52.934;5.884;2022-08-04T07:56:34;23.00;1.00
56137;DHT22;42008;52.934;5.884;2022-08-04T07:59:00;23.10;1.00
56137;DHT22;42008;52.934;5.884;2022-08-04T08:01:26;23.50;1.00
56137;DHT22;42008;52.934;5.884;2022-08-04T08:03:54;24.00;1.00
56137;DHT22;42008;52.934;5.884;2022-08-04T08:06:21;23.80;1.00
56137;DHT22;42008;52.934;5.884;2022-08-04T08:08:47;23.70;1.00
56137;DHT22;42008;52.934;5.884;2022-08-04T08:11:13;23.70;1.00
56137;DHT22;42008;52.934;5.884;2022-08-04T08:13:38;23.70;1.00
56137;DHT22;42008;52.934;5.884;2022-08-04T08:16:05;22.50;1.00
56137;DHT22;42008;52.934;5.884;2022-08-04T08:18:31;23.40;1.00
56137;DHT22;42008;52.934;5.884;2022-08-04T08:20:57;24.20;1.00
56137;DHT22;42008;52.934;5.884;2022-08-04T08:23:23;24.40;1.00
56137;DHT22;42008;52.934;5.884;2022-08-04T08:25:50;23.00;1.00
56137;DHT22;42008;52.934;5.884;2022-08-04T08:28:15;24.00;1.00
56137;DHT22;42008;52.934;5.884;2022-08-04T08:30:42;24.40;1.00
56137;DHT22;42008;52.934;5.884;2022-08-04T08:33:10;23.90;1.00
56137;DHT22;42008;52.934;5.884;2022-08-04T08:35:59;24.20;1.00
56137;DHT22;42008;52.934;5.884;2022-08-04T08:38:57;24.20;1.00
56137;DHT22;42008;52.934;5.884;2022-08-04T08:50:38;23.70;1.00
56137;DHT22;42008;52.934;5.884;2022-08-04T08:54:03;24.10;1.00
56137;DHT22;42008;52.934;5.884;2022-08-04T09:04:37;23.90;1.00
56137;DHT22;42008;52.934;5.884;2022-08-04T09:10:18;25.80;1.00
56137;DHT22;42008;52.934;5.884;2022-08-04T09:15:31;24.30;1.00
56137;DHT22;42008;52.934;5.884;2022-08-04T09:18:12;24.00;1.00
56137;DHT22;42008;52.934;5.884;2022-08-04T09:20:49;24.30;1.00
56137;DHT22;42008;52.934;5.884;2022-08-04T09:24:16;24.90;1.00
56137;DHT22;42008;52.934;5.884;2022-08-04T09:28:55;25.90;1.00
56137;DHT22;42008;52.934;5.884;2022-08-04T09:31:29;24.90;1.00
56137;DHT22;42008;52.934;5.884;2022-08-04T09:46:04;26.30;1.00
56137;DHT22;42008;52.934;5.884;2022-08-04T09:51:13;27.00;1.00
56137;DHT22;42008;52.934;5.884;2022-08-04T10:00:11;26.20;1.00
56137;DHT22;42008;52.934;5.884;2022-08-04T10:02:40;25.70;1.00
56137;DHT22;42008;52.934;5.884;2022-08-04T10:05:11;27.20;1.00
56137;DHT22;42008;52.934;5.884;2022-08-04T10:15:33;26.50;1.00
56137;DHT22;42008;52.934;5.884;2022-08-04T10:18:15;26.60;1.00
56137;DHT22;42008;52.934;5.884;2022-08-04T10:23:19;26.60;1.00
56137;DHT22;42008;52.934;5.884;2022-08-04T10:28:49;26.40;1.00
56137;DHT22;42008;52.934;5.884;2022-08-04T10:31:23;26.50;1.00
56137;DHT22;42008;52.934;5.884;2022-08-04T10:33:57;26.40;1.00
56137;DHT22;42008;52.934;5.884;2022-08-04T10:36:27;26.20;1.00
56137;DHT22;42008;52.934;5.884;2022-08-04T10:39:04;26.40;1.00
56137;DHT22;42008;52.934;5.884;2022-08-04T10:41:36;25.60;1.00
56137;DHT22;42008;52.934;5.884;2022-08-04T10:46:59;24.70;1.00
56137;DHT22;42008;52.934;5.884;2022-08-04T10:52:19;26.10;1.00
56137;DHT22;42008;52.934;5.884;2022-08-04T10:57:33;26.00;1.00
56137;DHT22;42008;52.934;5.884;2022-08-04T11:00:06;25.60;1.00
56137;DHT22;42008;52.934;5.884;2022-08-04T11:02:38;25.60;1.00
56137;DHT22;42008;52.934;5.884;2022-08-04T11:08:20;25.60;1.00
56137;DHT22;42008;52.934;5.884;2022-08-04T11:11:01;24.20;1.00
56137;DHT22;42008;52.934;5.884;2022-08-04T11:13:41;24.80;1.00
56137;DHT22;42008;52.934;5.884;2022-08-04T11:16:15;24.60;1.00
56137;DHT22;42008;52.934;5.884;2022-08-04T11:19:09;24.10;1.00
56137;DHT22;42008;52.934;5.884;2022-08-04T11:21:48;23.90;1.00
56137;DHT22;42008;52.934;5.884;2022-08-04T11:24:21;25.60;1.00
56137;DHT22;42008;52.934;5.884;2022-08-04T11:26:54;24.40;1.00
56137;DHT22;42008;52.934;5.884;2022-08-04T11:29:31;24.00;1.00
56137;DHT22;42008;52.934;5.884;2022-08-04T11:32:02;24.20;1.00
56137;DHT22;42008;52.934;5.884;2022-08-04T11:34:29;25.80;1.00
56137;DHT22;42008;52.934;5.884;2022-08-04T11:37:04;25.90;1.00
56137;DHT22;42008;52.934;5.884;2022-08-04T11:39:57;23.80;1.00
56137;DHT22;42008;52.934;5.884;2022-08-04T11:42:27;25.10;1.00
56137;DHT22;42008;52.934;5.884;2022-08-04T11:45:01;23.90;1.00
56137;DHT22;42008;52.934;5.884;2022-08-04T11:47:38;24.30;1.00
56137;DHT22;42008;52.934;5.884;2022-08-04T11:50:21;24.40;1.00
56137;DHT22;42008;52.934;5.884;2022-08-04T11:52:52;24.00;1.00
56137;DHT22;42008;52.934;5.884;2022-08-04T11:55:20;24.30;1.00
56137;DHT22;42008;52.934;5.884;2022-08-04T11:57:47;24.40;1.00
56137;DHT22;42008;52.934;5.884;2022-08-04T12:00:15;25.50;1.00
56137;DHT22;42008;52.934;5.884;2022-08-04T12:06:08;23.90;1.00
56137;DHT22;42008;52.934;5.884;2022-08-04T12:16:46;24.30;1.00
56137;DHT22;42008;52.934;5.884;2022-08-04T12:19:47;24.40;1.00
56137;DHT22;42008;52.934;5.884;2022-08-04T12:22:18;24.10;1.00
56137;DHT22;42008;52.934;5.884;2022-08-04T12:24:52;24.40;1.00
56137;DHT22;42008;52.934;5.884;2022-08-04T12:27:46;24.10;1.00
56137;DHT22;42008;52.934;5.884;2022-08-04T12:30:12;24.60;1.00
56137;DHT22;42008;52.934;5.884;2022-08-04T12:32:42;26.50;1.00
56137;DHT22;42008;52.934;5.884;2022-08-04T12:35:18;26.40;1.00
56137;DHT22;42008;52.934;5.884;2022-08-04T12:38:06;25.40;1.00
56137;DHT22;42008;52.934;5.884;2022-08-04T12:40:48;26.10;99.90
56137;DHT22;42008;52.934;5.884;2022-08-04T12:43:42;26.60;1.00
56137;DHT22;42008;52.934;5.884;2022-08-04T12:46:10;26.60;99.90
56137;DHT22;42008;52.934;5.884;2022-08-04T12:48:38;26.30;99.90
56137;DHT22;42008;52.934;5.884;2022-08-04T12:51:07;26.60;99.90
56137;DHT22;42008;52.934;5.884;2022-08-04T12:53:39;26.60;99.90
56137;DHT22;42008;52.934;5.884;2022-08-04T12:56:07;26.60;99.90
56137;DHT22;42008;52.934;5.884;2022-08-04T12:58:38;26.10;99.90
56137;DHT22;42008;52.934;5.884;2022-08-04T13:01:12;26.80;1.00
56137;DHT22;42008;52.934;5.884;2022-08-04T13:03:57;27.20;99.90
56137;DHT22;42008;52.934;5.884;2022-08-04T13:06:31;27.10;99.90
56137;DHT22;42008;52.934;5.884;2022-08-04T13:09:06;27.30;99.90
56137;DHT22;42008;52.934;5.884;2022-08-04T13:11:37;27.40;99.90
56137;DHT22;42008;52.934;5.884;2022-08-04T13:14:03;26.90;99.90
56137;DHT22;42008;52.934;5.884;2022-08-04T13:16:31;28.30;99.90
56137;DHT22;42008;52.934;5.884;2022-08-04T13:18:57;26.90;99.90
56137;DHT22;42008;52.934;5.884;2022-08-04T13:21:25;27.20;99.90
56137;DHT22;42008;52.934;5.884;2022-08-04T13:23:55;27.10;99.90
56137;DHT22;42008;52.934;5.884;2022-08-04T13:26:23;26.40;99.90
56137;DHT22;42008;52.934;5.884;2022-08-04T13:28:52;26.60;99.90
56137;DHT22;42008;52.934;5.884;2022-08-04T13:31:21;26.50;99.90
56137;DHT22;42008;52.934;5.884;2022-08-04T13:33:53;24.80;99.90
56137;DHT22;42008;52.934;5.884;2022-08-04T13:36:27;25.00;99.90
56137;DHT22;42008;52.934;5.884;2022-08-04T13:38:57;26.30;99.90
56137;DHT22;42008;52.934;5.884;2022-08-04T13:41:24;25.90;99.90
56137;DHT22;42008;52.934;5.884;2022-08-04T13:43:55;26.50;99.90
56137;DHT22;42008;52.934;5.884;2022-08-04T13:46:25;24.80;99.90
56137;DHT22;42008;52.934;5.884;2022-08-04T13:48:52;26.30;99.90
56137;DHT22;42008;52.934;5.884;2022-08-04T13:51:22;26.90;99.90
56137;DHT22;42008;52.934;5.884;2022-08-04T13:53:58;27.30;99.90
56137;DHT22;42008;52.934;5.884;2022-08-04T13:56:29;27.20;99.90
56137;DHT22;42008;52.934;5.884;2022-08-04T13:58:57;26.60;99.90
56137;DHT22;42008;52.934;5.884;2022-08-04T14:01:25;27.80;99.90
56137;DHT22;42008;52.934;5.884;2022-08-04T14:04:18;27.90;99.90
56137;DHT22;42008;52.934;5.884;2022-08-04T14:09:23;27.70;99.90
56137;DHT22;42008;52.934;5.884;2022-08-04T14:11:55;29.50;99.90
56137;DHT22;42008;52.934;5.884;2022-08-04T14:14:33;28.00;99.90
56137;DHT22;42008;52.934;5.884;2022-08-04T14:17:07;27.30;99.90
56137;DHT22;42008;52.934;5.884;2022-08-04T14:25:09;26.70;99.90
56137;DHT22;42008;52.934;5.884;2022-08-04T14:30:28;27.30;99.90
56137;DHT22;42008;52.934;5.884;2022-08-04T14:33:10;28.50;1.00
56137;DHT22;42008;52.934;5.884;2022-08-04T14:35:37;27.00;99.90
56137;DHT22;42008;52.934;5.884;2022-08-04T14:38:09;26.70;99.90
56137;DHT22;42008;52.934;5.884;2022-08-04T14:40:38;26.70;1.00
56137;DHT22;42008;52.934;5.884;2022-08-04T14:43:05;26.00;1.00
56137;DHT22;42008;52.934;5.884;2022-08-04T14:45:34;26.10;1.00
56137;DHT22;42008;52.934;5.884;2022-08-04T14:48:05;26.50;1.00
56137;DHT22;42008;52.934;5.884;2022-08-04T14:53:09;25.80;1.00
56137;DHT22;42008;52.934;5.884;2022-08-04T14:55:37;24.90;1.00
56137;DHT22;42008;52.934;5.884;2022-08-04T14:58:03;27.90;1.00
56137;DHT22;42008;52.934;5.884;2022-08-04T15:00:35;24.90;1.00
56137;DHT22;42008;52.934;5.884;2022-08-04T15:03:05;25.80;99.90
56137;DHT22;42008;52.934;5.884;2022-08-04T15:05:33;26.50;1.00
56137;DHT22;42008;52.934;5.884;2022-08-04T15:07:59;26.10;1.00
56137;DHT22;42008;52.934;5.884;2022-08-04T15:10:26;25.20;1.00
56137;DHT22;42008;52.934;5.884;2022-08-04T15:12:52;26.60;99.90
56137;DHT22;42008;52.934;5.884;2022-08-04T15:15:18;26.30;99.90
56137;DHT22;42008;52.934;5.884;2022-08-04T15:17:45;27.40;1.00
56137;DHT22;42008;52.934;5.884;2022-08-04T15:20:11;26.80;99.90
56137;DHT22;42008;52.934;5.884;2022-08-04T15:22:37;26.80;99.90
56137;DHT22;42008;52.934;5.884;2022-08-04T15:25:04;27.90;99.90
56137;DHT22;42008;52.934;5.884;2022-08-04T15:27:33;26.10;99.90
56137;DHT22;42008;52.934;5.884;2022-08-04T15:30:02;26.90;99.90
56137;DHT22;42008;52.934;5.884;2022-08-04T15:32:33;26.50;99.90
56137;DHT22;42008;52.934;5.884;2022-08-04T15:35:07;27.70;99.90
56137;DHT22;42008;52.934;5.884;2022-08-04T15:43:01;28.00;99.90
56137;DHT22;42008;52.934;5.884;2022-08-04T15:55:54;29.30;99.90
56137;DHT22;42008;52.934;5.884;2022-08-04T15:58:21;29.00;99.90
56137;DHT22;42008;52.934;5.884;2022-08-04T16:19:32;29.30;99.90
56137;DHT22;42008;52.934;5.884;2022-08-04T16:22:01;31.80;99.90
56137;DHT22;42008;52.934;5.884;2022-08-04T16:24:37;31.60;99.90
56137;DHT22;42008;52.934;5.884;2022-08-04T16:27:07;31.50;99.90
56137;DHT22;42008;52.934;5.884;2022-08-04T16:34:35;29.10;99.90
56137;DHT22;42008;52.934;5.884;2022-08-04T16:37:03;30.90;99.90
56137;DHT22;42008;52.934;5.884;2022-08-04T16:39:29;27.90;99.90
56137;DHT22;42008;52.934;5.884;2022-08-04T16:41:59;27.60;99.90
56137;DHT22;42008;52.934;5.884;2022-08-04T16:44:32;27.20;99.90
56137;DHT22;42008;52.934;5.884;2022-08-04T16:47:02;26.50;99.90
56137;DHT22;42008;52.934;5.884;2022-08-04T16:49:29;24.90;99.90
56137;DHT22;42008;52.934;5.884;2022-08-04T16:52:06;24.80;99.90
56137;DHT22;42008;52.934;5.884;2022-08-04T16:54:33;26.00;99.90
56137;DHT22;42008;52.934;5.884;2022-08-04T16:57:07;26.00;99.90
56137;DHT22;42008;52.934;5.884;2022-08-04T16:59:33;24.20;99.90
56137;DHT22;42008;52.934;5.884;2022-08-04T17:01:59;25.60;99.90
56137;DHT22;42008;52.934;5.884;2022-08-04T17:04:30;23.60;1.00
56137;DHT22;42008;52.934;5.884;2022-08-04T17:07:01;23.30;1.00
56137;DHT22;42008;52.934;5.884;2022-08-04T17:09:28;23.50;1.00
56137;DHT22;42008;52.934;5.884;2022-08-04T17:11:54;24.20;1.00
56137;DHT22;42008;52.934;5.884;2022-08-04T17:14:26;23.60;1.00
56137;DHT22;42008;52.934;5.884;2022-08-04T17:16:55;25.00;1.00
56137;DHT22;42008;52.934;5.884;2022-08-04T17:19:21;23.70;1.00
56137;DHT22;42008;52.934;5.884;2022-08-04T17:21:49;23.30;1.00
56137;DHT22;42008;52.934;5.884;2022-08-04T17:24:15;23.80;1.00
56137;DHT22;42008;52.934;5.884;2022-08-04T17:26:41;23.70;1.00
56137;DHT22;42008;52.934;5.884;2022-08-04T17:29:06;23.50;1.00
56137;DHT22;42008;52.934;5.884;2022-08-04T17:31:35;23.60;1.00
56137;DHT22;42008;52.934;5.884;2022-08-04T17:34:11;23.60;1.00
56137;DHT22;42008;52.934;5.884;2022-08-04T17:36:37;23.20;1.00
56137;DHT22;42008;52.934;5.884;2022-08-04T17:39:19;23.10;1.00
56137;DHT22;42008;52.934;5.884;2022-08-04T17:41:48;23.30;1.00
56137;DHT22;42008;52.934;5.884;2022-08-04T17:44:19;22.90;1.00
56137;DHT22;42008;52.934;5.884;2022-08-04T17:46:45;23.30;1.00
56137;DHT22;42008;52.934;5.884;2022-08-04T17:51:59;23.00;1.00
56137;DHT22;42008;52.934;5.884;2022-08-04T17:56:53;23.20;1.00
56137;DHT22;42008;52.934;5.884;2022-08-04T17:59:41;22.50;1.00
56137;DHT22;42008;52.934;5.884;2022-08-04T18:02:07;22.80;1.00
56137;DHT22;42008;52.934;5.884;2022-08-04T18:07:13;22.60;1.00
56137;DHT22;42008;52.934;5.884;2022-08-04T18:09:39;24.00;1.00
56137;DHT22;42008;52.934;5.884;2022-08-04T18:12:08;21.60;1.00
56137;DHT22;42008;52.934;5.884;2022-08-04T18:14:55;22.60;1.00
56137;DHT22;42008;52.934;5.884;2022-08-04T18:17:35;22.40;1.00
56137;DHT22;42008;52.934;5.884;2022-08-04T18:20:07;21.50;1.00
56137;DHT22;42008;52.934;5.884;2022-08-04T18:22:34;20.80;1.00
56137;DHT22;42008;52.934;5.884;2022-08-04T18:25:00;23.50;1.00
56137;DHT22;42008;52.934;5.884;2022-08-04T18:27:28;22.00;1.00
56137;DHT22;42008;52.934;5.884;2022-08-04T18:29:55;22.40;1.00
56137;DHT22;42008;52.934;5.884;2022-08-04T18:32:21;21.30;1.00
56137;DHT22;42008;52.934;5.884;2022-08-04T18:34:49;22.10;1.00
56137;DHT22;42008;52.934;5.884;2022-08-04T18:37:15;20.50;1.00
56137;DHT22;42008;52.934;5.884;2022-08-04T18:39:41;23.50;1.00
56137;DHT22;42008;52.934;5.884;2022-08-04T18:42:07;22.00;1.00
56137;DHT22;42008;52.934;5.884;2022-08-04T18:44:33;21.90;1.00
56137;DHT22;42008;52.934;5.884;2022-08-04T18:47:00;20.70;1.00
56137;DHT22;42008;52.934;5.884;2022-08-04T18:49:25;20.40;1.00
56137;DHT22;42008;52.934;5.884;2022-08-04T18:51:54;21.90;1.00
56137;DHT22;42008;52.934;5.884;2022-08-04T18:54:21;20.10;1.00
56137;DHT22;42008;52.934;5.884;2022-08-04T18:56:50;21.40;1.00
56137;DHT22;42008;52.934;5.884;2022-08-04T18:59:17;22.50;1.00
56137;DHT22;42008;52.934;5.884;2022-08-04T19:01:42;20.40;1.00
56137;DHT22;42008;52.934;5.884;2022-08-04T19:04:09;20.80;1.00
56137;DHT22;42008;52.934;5.884;2022-08-04T19:06:35;19.90;1.00
56137;DHT22;42008;52.934;5.884;2022-08-04T19:09:01;21.10;1.00
56137;DHT22;42008;52.934;5.884;2022-08-04T19:11:27;20.20;1.00
56137;DHT22;42008;52.934;5.884;2022-08-04T19:13:53;21.60;1.00
56137;DHT22;42008;52.934;5.884;2022-08-04T19:16:19;19.90;1.00
56137;DHT22;42008;52.934;5.884;2022-08-04T19:18:44;20.10;1.00
56137;DHT22;42008;52.934;5.884;2022-08-04T19:21:10;21.00;1.00
56137;DHT22;42008;52.934;5.884;2022-08-04T19:23:35;20.40;1.00
56137;DHT22;42008;52.934;5.884;2022-08-04T19:26:01;21.20;1.00
56137;DHT22;42008;52.934;5.884;2022-08-04T19:28:28;20.10;1.00
56137;DHT22;42008;52.934;5.884;2022-08-04T19:30:54;20.00;1.00
56137;DHT22;42008;52.934;5.884;2022-08-04T19:33:20;22.50;1.00
56137;DHT22;42008;52.934;5.884;2022-08-04T19:35:46;20.40;1.00
56137;DHT22;42008;52.934;5.884;2022-08-04T19:38:12;20.10;1.00
56137;DHT22;42008;52.934;5.884;2022-08-04T19:40:38;20.00;1.00
56137;DHT22;42008;52.934;5.884;2022-08-04T19:43:05;20.40;1.00
56137;DHT22;42008;52.934;5.884;2022-08-04T19:45:31;21.30;1.00
56137;DHT22;42008;52.934;5.884;2022-08-04T19:47:57;21.50;1.00
56137;DHT22;42008;52.934;5.884;2022-08-04T19:50:23;20.20;1.00
56137;DHT22;42008;52.934;5.884;2022-08-04T19:52:49;20.00;1.00
56137;DHT22;42008;52.934;5.884;2022-08-04T19:55:15;19.80;1.00
56137;DHT22;42008;52.934;5.884;2022-08-04T19:57:40;20.00;1.00
56137;DHT22;42008;52.934;5.884;2022-08-04T20:00:10;20.50;1.00
56137;DHT22;42008;52.934;5.884;2022-08-04T20:02:37;19.60;1.00
56137;DHT22;42008;52.934;5.884;2022-08-04T20:05:03;19.90;1.00
56137;DHT22;42008;52.934;5.884;2022-08-04T20:07:29;19.60;1.00
56137;DHT22;42008;52.934;5.884;2022-08-04T20:09:55;21.20;1.00
56137;DHT22;42008;52.934;5.884;2022-08-04T20:12:20;20.00;1.00
56137;DHT22;42008;52.934;5.884;2022-08-04T20:14:46;19.40;1.00
56137;DHT22;42008;52.934;5.884;2022-08-04T20:17:11;18.80;1.00
56137;DHT22;42008;52.934;5.884;2022-08-04T20:19:38;19.50;1.00
56137;DHT22;42008;52.934;5.884;2022-08-04T20:22:04;21.20;1.00
56137;DHT22;42008;52.934;5.884;2022-08-04T20:24:29;19.80;1.00
56137;DHT22;42008;52.934;5.884;2022-08-04T20:26:55;19.60;1.00